Clear Sky Current Weather (METAR) For Innsbruck - Kranebitten Airport

All times on the weather descriptions are local

Observed at 12:50 - (29 mins ago)

Clear Sky

14°C

Clear Sky
Clouds:
Wind: 270° at 03 knots, varying from 200° to 330
Visibility: Greater than 10km
QNH: 1024
Dew Point: 6°C
Runway in Use: Likely Runway 26

Sunrise Today: 06:56
Sunset Today: 16:59

Forecast Weather (TAF) For Innsbruck - Kranebitten Airport

Issued at 01:00 - (29 days ago)


Runway in Use: Unable to determine, wind is clam

Forecast valid until 01:00 on Sunday

METAR/TAF RAW METAR / TAF

LOWI 011150Z 27003KT 200V330 CAVOK 14/06 Q1024 NOSIG

Weather Widget

Put weather from any of our airports on your website with our weather widget.

Find Another Search

Airport Search


Please Wait Please Wait - Loading
Close
Close

Login

Username:

Password:

Remember Me:

Remember me on this computer

Forgotten your password? Get a reset password sent to your registered e-mail address

Close

User Private Message

Subject:

Message: